e-Mail: Password: Lost your password? Click here. - Register a new user

c h a v e z j u a r e z . c o m

Weather - Tiempo - Wetter - Temps

METAR DATA MMMX (Mexico City)

Mexico City / Licenci, Mexico (MMMX) 19-26N 099-06W
Oct 27, 2020 - 12:43 AM EDT / 2020.10.27 0443 UTC
Wind: Calm:0
Visibility: 8 mile(s):0
Sky conditions: mostly cloudy
Temperature: 62 F (17 C)
Dew Point: 46 F (8 C)
Relative Humidity: 55%
Pressure (altimeter): 30.25 in. Hg (1024 hPa)
ob: MMMX 270443Z 00000KT 8SM BKN250 17/08 A3025 NOSIG RMK 8/008 HZY
cycle: 4

Mexico City

St. Prex




Current weather alarms for Switzerland


www.wetteralarm.ch